Terminal Aerodrome Forecast
Issued by NWS

Home | Current Version | Previous Version | Text Only | Print | Product List | Glossary On
Versions: 1 2 3 4 5 6 7 8 9 10 11 12 13 14 15 16 17 18 19
000
FTUS43 KDVN 292342
TAFCID
TAF
KCID 292342Z 3000/3024 30006KT P6SM VCTS BKN035CB
     FM300200 30004KT P6SM SCT035
     FM300600 28004KT 5SM BR SCT060
      TEMPO 3008/3012 2SM BR
     FM301400 32010KT P6SM FEW050=

USA.gov is the U.S. government's official web portal to all federal, state and local government web resources and services.